Time;durP1;ratioP1;P1;durP2;ratioP2;P2;SDS_P1;SDS_P2;PMS_P1;PMS_P2;Temp;Humidity;BMP_temperature;BMP_pressure;BME280_temperature;BME280_humidity;BME280_pressure;Samples;Min_cycle;Max_cycle;Signal;HPM_P1;HPM_P2
2021/08/19 00:02:10;;;;;;;36.05;31.10;;;20.40;99.60;;;;;;5015966;28;20034;-82
2021/08/19 00:04:36;;;;;;;33.83;29.30;;;20.40;99.80;;;;;;5016368;28;20045;-82
2021/08/19 00:07:02;;;;;;;35.72;31.35;;;20.40;99.80;;;;;;5016053;28;20073;-82
2021/08/19 00:09:28;;;;;;;34.10;28.13;;;20.40;99.90;;;;;;5014547;28;20022;-83
2021/08/19 00:11:54;;;;;;;34.30;29.08;;;20.30;99.90;;;;;;5016646;28;20386;-82
2021/08/19 00:14:20;;;;;;;33.75;27.15;;;20.30;99.90;;;;;;5016065;28;20030;-83
2021/08/19 00:16:46;;;;;;;31.30;27.55;;;20.30;99.90;;;;;;5016385;28;20390;-83
2021/08/19 00:19:12;;;;;;;32.88;28.83;;;20.30;99.90;;;;;;5016073;28;20025;-83
2021/08/19 00:21:38;;;;;;;29.60;25.10;;;20.30;99.90;;;;;;5016137;28;20497;-83
2021/08/19 00:24:04;;;;;;;35.90;26.05;;;20.40;99.40;;;;;;5016099;28;20030;-83
2021/08/19 00:26:30;;;;;;;27.65;24.67;;;20.30;99.50;;;;;;5015854;28;20030;-85
2021/08/19 00:28:56;;;;;;;26.02;23.02;;;20.30;99.50;;;;;;5015817;28;20025;-84
2021/08/19 00:31:22;;;;;;;30.67;23.60;;;20.50;99.50;;;;;;5016047;28;20033;-83
2021/08/19 00:33:52;;;;;;;29.35;23.10;;;20.50;99.40;;;;;;5015490;28;20360;-84
2021/08/19 00:36:17;;;;;;;25.25;22.75;;;20.70;98.90;;;;;;5015331;28;20033;-84
2021/08/19 00:38:45;;;;;;;26.25;23.55;;;20.70;98.70;;;;;;5002032;28;20507;-84
2021/08/19 00:41:11;;;;;;;27.50;22.95;;;20.70;98.60;;;;;;5015332;28;20045;-84
2021/08/19 00:43:37;;;;;;;27.05;23.65;;;20.70;98.50;;;;;;5015554;28;20022;-84
2021/08/19 00:46:22;;;;;;;26.30;23.20;;;20.70;98.50;;;;;;5016323;28;20017;-85
2021/08/19 00:48:48;;;;;;;26.13;23.15;;;20.70;98.70;;;;;;5015531;28;20029;-85
2021/08/19 00:51:14;;;;;;;24.02;21.33;;;20.80;98.60;;;;;;5014550;28;20026;-84
2021/08/19 00:53:41;;;;;;;24.75;21.38;;;20.90;98.60;;;;;;5018229;28;20395;-88
2021/08/19 00:56:07;;;;;;;24.63;22.13;;;20.90;98.40;;;;;;5016622;28;20022;-86
2021/08/19 00:58:35;;;;;;;25.73;22.63;;;21.00;98.30;;;;;;5015685;28;20029;-85
2021/08/19 01:01:01;;;;;;;24.17;21.63;;;21.00;98.10;;;;;;5016066;28;20029;-86
2021/08/19 01:03:27;;;;;;;25.73;21.17;;;21.00;97.70;;;;;;5016214;28;20029;-86
2021/08/19 01:05:53;;;;;;;28.55;22.98;;;21.00;97.60;;;;;;5014373;28;20014;-86
2021/08/19 01:08:19;;;;;;;24.92;21.33;;;21.00;97.60;;;;;;5016464;28;20018;-86
2021/08/19 01:10:45;;;;;;;24.25;21.75;;;21.00;97.70;;;;;;5015739;28;20491;-86
2021/08/19 01:13:11;;;;;;;23.37;20.90;;;21.00;97.60;;;;;;5015915;28;20034;-86
2021/08/19 01:15:37;;;;;;;28.15;21.92;;;20.90;97.80;;;;;;5015214;28;20026;-86
2021/08/19 01:18:03;;;;;;;23.85;21.38;;;21.00;98.00;;;;;;5016689;28;20022;-85
2021/08/19 01:20:30;;;;;;;23.17;20.38;;;21.00;98.00;;;;;;5018286;28;20026;-86
2021/08/19 01:22:57;;;;;;;26.25;21.90;;;20.90;97.90;;;;;;5016452;28;20379;-85
2021/08/19 01:25:24;;;;;;;24.20;20.95;;;21.00;97.60;;;;;;5017031;28;20239;-86
2021/08/19 01:27:52;;;;;;;25.88;21.90;;;20.90;97.70;;;;;;5016133;28;20101;-86
2021/08/19 01:30:19;;;;;;;24.55;21.83;;;20.80;97.90;;;;;;5015876;28;20034;-86
2021/08/19 01:32:45;;;;;;;25.20;22.50;;;20.70;98.20;;;;;;5015653;28;20026;-86
2021/08/19 01:35:11;;;;;;;25.58;21.58;;;20.50;98.30;;;;;;5016240;28;20030;-85
2021/08/19 01:37:37;;;;;;;25.52;23.02;;;20.50;98.50;;;;;;5015565;28;20109;-86
2021/08/19 01:40:03;;;;;;;27.25;22.13;;;20.60;98.70;;;;;;5016840;28;20046;-86
2021/08/19 01:42:29;;;;;;;25.35;22.75;;;20.70;98.70;;;;;;5017008;28;20029;-85
2021/08/19 01:44:55;;;;;;;23.08;20.65;;;20.80;98.50;;;;;;5015401;28;20030;-84
2021/08/19 01:47:22;;;;;;;22.88;20.60;;;20.90;98.20;;;;;;5014668;28;20053;-83
2021/08/19 01:49:48;;;;;;;24.40;21.83;;;21.00;98.00;;;;;;5014315;28;20018;-84
2021/08/19 01:52:14;;;;;;;25.33;22.95;;;21.00;97.60;;;;;;5014740;28;20084;-84
2021/08/19 01:54:40;;;;;;;24.23;20.60;;;21.10;97.50;;;;;;5014309;28;20030;-85
2021/08/19 01:57:06;;;;;;;24.58;21.15;;;21.00;97.20;;;;;;5014909;28;20029;-84
2021/08/19 01:59:32;;;;;;;21.58;18.05;;;21.00;97.40;;;;;;5013158;28;20061;-85
2021/08/19 02:02:00;;;;;;;21.95;19.70;;;21.00;97.30;;;;;;5014725;28;20014;-85
2021/08/19 02:04:26;;;;;;;20.27;18.02;;;20.90;97.40;;;;;;5013320;28;20178;-85
2021/08/19 02:06:52;;;;;;;21.92;19.02;;;20.90;97.40;;;;;;5013081;28;20168;-86
2021/08/19 02:09:19;;;;;;;25.45;20.10;;;20.90;97.30;;;;;;5014188;28;20494;-86
2021/08/19 02:11:45;;;;;;;20.20;17.70;;;20.90;97.50;;;;;;5002875;28;20033;-86
2021/08/19 02:14:12;;;;;;;21.55;19.23;;;20.90;97.40;;;;;;5011829;28;20034;-85
2021/08/19 02:16:37;;;;;;;21.43;19.33;;;20.90;97.40;;;;;;5014835;28;20026;-87
2021/08/19 02:19:04;;;;;;;21.67;18.08;;;20.90;97.30;;;;;;5014522;28;20386;-86
2021/08/19 02:21:33;;;;;;;23.40;19.17;;;21.00;97.10;;;;;;5014099;28;20032;-83
2021/08/19 02:23:59;;;;;;;20.85;18.67;;;20.90;97.10;;;;;;5012470;28;20021;-84
2021/08/19 02:26:26;;;;;;;24.93;20.57;;;20.90;97.50;;;;;;5010725;28;20022;-84
2021/08/19 02:28:52;;;;;;;23.17;20.85;;;21.00;97.60;;;;;;5006479;28;20033;-83
2021/08/19 02:31:19;;;;;;;23.63;20.42;;;21.10;97.70;;;;;;5013729;28;20025;-84
2021/08/19 02:33:45;;;;;;;24.05;20.45;;;21.10;97.50;;;;;;5013828;28;20119;-84
2021/08/19 02:36:11;;;;;;;22.98;20.58;;;21.20;97.10;;;;;;5014808;28;20064;-84
2021/08/19 02:38:37;;;;;;;24.35;20.15;;;21.20;97.10;;;;;;5013266;28;20026;-84
2021/08/19 02:41:03;;;;;;;22.85;20.30;;;21.20;96.90;;;;;;5013968;28;20041;-83
2021/08/19 02:43:29;;;;;;;23.38;21.02;;;21.20;97.00;;;;;;5014129;28;20026;-83
2021/08/19 02:45:54;;;;;;;27.00;21.25;;;21.20;96.90;;;;;;5013865;28;20033;-85
2021/08/19 02:48:21;;;;;;;20.73;18.73;;;21.20;96.70;;;;;;5013890;28;20014;-84
2021/08/19 02:50:47;;;;;;;23.50;19.67;;;21.10;96.70;;;;;;5013772;28;20019;-85
2021/08/19 02:53:13;;;;;;;21.25;19.10;;;21.00;96.70;;;;;;5013953;28;20570;-86
2021/08/19 02:55:39;;;;;;;22.85;19.73;;;20.90;96.80;;;;;;5013815;28;20101;-85
2021/08/19 02:58:05;;;;;;;22.50;20.20;;;20.90;97.20;;;;;;5013449;28;20479;-84
2021/08/19 03:00:30;;;;;;;22.83;20.40;;;20.90;97.20;;;;;;5012859;28;20022;-85
2021/08/19 03:02:56;;;;;;;24.02;20.80;;;20.90;97.00;;;;;;5003042;28;20034;-86
2021/08/19 03:05:22;;;;;;;24.98;22.20;;;20.80;96.90;;;;;;5014102;28;20558;-87
2021/08/19 03:07:48;;;;;;;26.40;22.58;;;20.70;97.30;;;;;;5000822;28;20102;-85
2021/08/19 03:10:14;;;;;;;26.73;23.52;;;20.50;97.70;;;;;;5014050;28;20118;-85
2021/08/19 03:12:40;;;;;;;27.13;24.20;;;20.50;98.20;;;;;;5012611;28;20037;-86
2021/08/19 03:15:06;;;;;;;28.40;23.90;;;20.30;98.50;;;;;;5013993;28;20537;-87
2021/08/19 03:17:33;;;;;;;27.17;23.58;;;20.30;98.80;;;;;;5000544;28;20412;-86
2021/08/19 03:19:59;;;;;;;27.48;24.52;;;20.30;99.00;;;;;;5014916;28;20014;-86
2021/08/19 03:22:25;;;;;;;30.38;24.75;;;20.30;98.80;;;;;;5013657;28;20224;-84
2021/08/19 03:24:51;;;;;;;29.52;23.73;;;20.30;98.80;;;;;;5014145;28;20018;-85
2021/08/19 03:27:17;;;;;;;26.27;22.83;;;20.30;99.10;;;;;;5013611;28;20037;-84
2021/08/19 03:29:43;;;;;;;25.80;23.17;;;20.40;98.90;;;;;;5013138;28;20018;-84
2021/08/19 03:32:09;;;;;;;25.63;22.45;;;20.40;98.50;;;;;;5013966;28;20150;-85
2021/08/19 03:34:35;;;;;;;25.25;21.92;;;20.40;98.40;;;;;;5013698;28;20040;-86
2021/08/19 03:37:01;;;;;;;25.80;23.05;;;20.40;98.70;;;;;;5013022;28;20049;-85
2021/08/19 03:39:28;;;;;;;25.92;22.40;;;20.50;98.30;;;;;;5013664;28;20022;-85
2021/08/19 03:41:54;;;;;;;23.95;20.90;;;20.50;98.30;;;;;;5014039;28;20042;-84
2021/08/19 03:44:20;;;;;;;24.30;20.80;;;20.70;97.80;;;;;;5014714;28;20022;-84
2021/08/19 03:46:48;;;;;;;25.00;22.35;;;20.60;97.50;;;;;;5012336;28;20034;-86
2021/08/19 03:49:14;;;;;;;22.48;20.08;;;20.60;97.60;;;;;;5016474;28;20033;-88
2021/08/19 03:51:40;;;;;;;24.67;21.05;;;20.50;97.70;;;;;;5016767;28;20026;-86
2021/08/19 03:54:06;;;;;;;22.42;19.50;;;20.60;97.80;;;;;;5015465;28;20088;-88
2021/08/19 03:56:35;;;;;;;22.23;19.85;;;20.70;97.20;;;;;;5014948;28;20022;-89
2021/08/19 03:59:01;;;;;;;21.90;19.63;;;20.70;97.10;;;;;;5018670;28;20082;-85
2021/08/19 04:01:26;;;;;;;24.52;20.25;;;20.60;97.20;;;;;;5015692;28;20112;-86
2021/08/19 04:03:52;;;;;;;23.00;20.73;;;20.60;97.30;;;;;;5009293;28;20026;-89
2021/08/19 04:06:18;;;;;;;22.50;19.00;;;20.70;97.20;;;;;;5014981;28;20029;-90
2021/08/19 04:08:44;;;;;;;23.05;19.38;;;20.80;97.30;;;;;;5014978;28;20029;-89
2021/08/19 04:11:10;;;;;;;23.15;19.58;;;21.00;97.10;;;;;;5018526;28;20026;-89
2021/08/19 04:13:39;;;;;;;22.90;18.73;;;21.10;96.80;;;;;;5023149;28;20044;-90
2021/08/19 04:16:08;;;;;;;21.00;18.90;;;21.20;96.20;;;;;;5019290;28;20436;-89
2021/08/19 04:18:34;;;;;;;25.52;19.50;;;21.30;96.10;;;;;;5018247;28;20037;-87
2021/08/19 04:21:02;;;;;;;20.63;18.45;;;21.50;95.70;;;;;;5018300;28;20029;-87
2021/08/19 04:23:27;;;;;;;21.13;18.27;;;21.60;95.30;;;;;;5020502;28;20030;-89
2021/08/19 04:25:53;;;;;;;20.42;18.38;;;21.80;95.10;;;;;;5029364;28;20026;-88
2021/08/19 04:28:19;;;;;;;24.50;18.27;;;21.80;94.80;;;;;;5007264;28;20105;-90
2021/08/19 04:30:45;;;;;;;20.17;18.00;;;21.80;94.80;;;;;;5012276;28;20018;-89
2021/08/19 04:33:11;;;;;;;23.75;19.27;;;21.90;94.70;;;;;;5019430;28;20034;-89
2021/08/19 04:35:39;;;;;;;22.45;19.33;;;22.10;94.40;;;;;;5020352;28;20026;-89
2021/08/19 04:38:05;;;;;;;23.13;18.67;;;22.20;94.20;;;;;;5018299;28;20022;-91
2021/08/19 04:40:30;;;;;;;20.90;18.67;;;22.30;94.00;;;;;;5019331;28;20121;-88
2021/08/19 04:42:56;;;;;;;20.35;17.00;;;22.40;93.90;;;;;;5017117;28;20026;-90
2021/08/19 04:45:22;;;;;;;17.23;15.43;;;22.60;93.50;;;;;;5017890;28;20021;-88
2021/08/19 04:47:48;;;;;;;17.38;15.50;;;22.90;92.90;;;;;;5016727;28;20084;-90
2021/08/19 04:50:14;;;;;;;16.38;14.48;;;23.40;91.60;;;;;;5013236;28;20076;-90
2021/08/19 04:52:40;;;;;;;17.48;15.50;;;23.80;90.80;;;;;;5015808;28;20041;-89
2021/08/19 04:55:07;;;;;;;17.13;14.90;;;24.40;88.70;;;;;;5016326;28;20101;-86
2021/08/19 04:57:34;;;;;;;18.17;14.95;;;24.80;86.50;;;;;;5017185;28;20018;-87
2021/08/19 05:00:00;;;;;;;14.63;12.63;;;25.50;84.60;;;;;;5017264;28;20084;-87
2021/08/19 05:02:26;;;;;;;16.25;14.02;;;26.00;81.40;;;;;;5018253;28;20030;-86
2021/08/19 05:04:52;;;;;;;14.48;13.05;;;26.40;78.50;;;;;;5015734;28;20101;-87
2021/08/19 05:07:18;;;;;;;13.60;12.20;;;26.60;77.60;;;;;;5015968;28;20475;-85
2021/08/19 05:09:44;;;;;;;14.32;12.90;;;27.10;76.20;;;;;;5011732;28;20022;-87
2021/08/19 05:12:10;;;;;;;16.50;13.07;;;27.60;74.90;;;;;;5009256;28;20033;-87
2021/08/19 05:14:41;;;;;;;14.88;12.75;;;28.00;72.50;;;;;;5016278;28;20268;-89
2021/08/19 05:17:10;;;;;;;15.27;12.98;;;28.00;70.40;;;;;;5016235;28;20117;-87
2021/08/19 05:19:36;;;;;;;14.27;12.27;;;27.50;70.90;;;;;;5014891;28;20525;-87
2021/08/19 05:22:02;;;;;;;17.35;12.95;;;27.30;71.60;;;;;;5015444;28;20066;-88
2021/08/19 05:24:28;;;;;;;19.13;17.17;;;26.90;72.60;;;;;;5017987;28;20018;-88
2021/08/19 05:26:53;;;;;;;16.10;13.57;;;26.80;72.80;;;;;;5018491;28;20029;-88
2021/08/19 05:29:19;;;;;;;14.95;13.10;;;27.00;72.30;;;;;;5004784;28;20030;-87
2021/08/19 05:31:45;;;;;;;15.75;12.77;;;27.50;71.10;;;;;;5018315;28;20030;-87
2021/08/19 05:34:11;;;;;;;13.55;11.68;;;28.00;69.00;;;;;;5017584;28;20034;-86
2021/08/19 05:36:37;;;;;;;13.63;11.05;;;28.50;68.20;;;;;;5016789;28;20018;-88
2021/08/19 05:39:04;;;;;;;13.82;11.18;;;29.10;66.00;;;;;;5019717;28;20022;-88
2021/08/19 05:41:30;;;;;;;13.85;12.38;;;29.50;64.90;;;;;;5022730;28;20440;-87
2021/08/19 05:43:56;;;;;;;14.43;12.93;;;30.00;63.00;;;;;;5025080;28;20036;-85
2021/08/19 05:46:22;;;;;;;14.57;12.50;;;30.80;61.20;;;;;;5022208;28;20483;-87
2021/08/19 05:48:48;;;;;;;14.73;12.18;;;31.50;59.00;;;;;;5016188;28;20025;-84
2021/08/19 05:51:14;;;;;;;12.95;11.65;;;;;;;;;;5013983;28;20037;-86
2021/08/19 05:53:41;;;;;;;12.25;11.00;;;32.80;58.00;;;;;;5013657;28;20114;-85
2021/08/19 05:56:07;;;;;;;10.52;9.48;;;33.50;53.40;;;;;;5013786;28;20026;-87
2021/08/19 05:58:34;;;;;;;11.88;10.60;;;33.50;52.80;;;;;;5015638;28;20053;-89
2021/08/19 06:01:00;;;;;;;12.50;11.25;;;33.60;52.50;;;;;;5016034;28;20079;-86
2021/08/19 06:03:26;;;;;;;12.00;10.87;;;34.30;51.90;;;;;;5016974;28;20022;-87
2021/08/19 06:05:52;;;;;;;12.17;10.97;;;34.50;50.50;;;;;;5015430;28;20040;-88
2021/08/19 06:08:18;;;;;;;11.67;10.57;;;34.40;50.00;;;;;;5016148;28;20268;-88
2021/08/19 06:10:45;;;;;;;12.38;10.98;;;34.40;49.70;;;;;;5016037;28;20022;-92
2021/08/19 06:13:11;;;;;;;12.95;8.88;;;34.50;49.10;;;;;;5026488;28;20041;-91
2021/08/19 06:15:37;;;;;;;11.20;8.98;;;34.80;48.90;;;;;;5026893;28;20022;-88
2021/08/19 06:18:03;;;;;;;11.05;9.73;;;35.10;48.50;;;;;;5016299;28;20487;-86
2021/08/19 06:20:30;;;;;;;12.77;9.80;;;35.00;48.00;;;;;;5011306;28;20120;-90
2021/08/19 06:22:55;;;;;;;;;;;33.80;48.80;;;;;;5014197;28;20041;-87
2021/08/19 06:25:23;;;;;;;11.55;9.68;;;33.30;52.00;;;;;;5007352;28;20283;-85
2021/08/19 06:27:50;;;;;;;11.70;8.57;;;33.00;51.10;;;;;;5012881;28;20023;-88
2021/08/19 06:30:16;;;;;;;9.15;8.02;;;33.30;51.00;;;;;;5014583;28;20053;-84
2021/08/19 06:32:41;;;;;;;8.95;8.05;;;34.00;49.50;;;;;;5013356;28;20041;-84
2021/08/19 06:35:09;;;;;;;11.60;9.80;;;34.40;48.50;;;;;;5012916;28;20100;-83
2021/08/19 06:37:35;;;;;;;10.30;8.75;;;34.10;48.40;;;;;;5013222;28;20022;-84
2021/08/19 06:40:01;;;;;;;;;;;33.50;48.80;;;;;;5013446;28;20046;-84
2021/08/19 06:42:27;;;;;;;10.20;9.30;;;32.60;50.70;;;;;;5013454;28;20326;-84
2021/08/19 06:44:53;;;;;;;13.10;10.18;;;32.00;51.50;;;;;;5011717;28;20442;-82
2021/08/19 06:47:19;;;;;;;15.67;10.40;;;30.90;53.90;;;;;;5013886;28;20439;-82
2021/08/19 06:49:46;;;;;;;11.80;9.93;;;29.70;56.40;;;;;;5013081;28;20124;-84
2021/08/19 06:52:12;;;;;;;12.95;10.30;;;28.80;58.80;;;;;;5003764;28;20036;-84
2021/08/19 06:54:38;;;;;;;13.30;11.27;;;28.60;60.80;;;;;;5012845;28;20041;-83
2021/08/19 06:57:04;;;;;;;12.48;10.07;;;28.90;60.20;;;;;;5012631;28;20476;-84
2021/08/19 06:59:30;;;;;;;13.07;10.63;;;29.40;59.80;;;;;;5013585;28;20033;-84
2021/08/19 07:01:56;;;;;;;12.82;11.00;;;29.60;58.80;;;;;;5013846;28;20455;-84
2021/08/19 07:04:22;;;;;;;13.13;10.57;;;29.50;58.70;;;;;;5015341;28;20563;-84
2021/08/19 07:06:48;;;;;;;14.55;11.38;;;28.90;59.40;;;;;;5014284;28;20101;-83
2021/08/19 07:09:14;;;;;;;22.33;10.52;;;28.90;60.30;;;;;;5013975;28;20495;-83
2021/08/19 07:11:40;;;;;;;14.20;10.85;;;30.10;59.60;;;;;;5012032;28;20396;-84
2021/08/19 07:14:06;;;;;;;10.88;9.77;;;31.20;55.80;;;;;;5012433;28;20045;-83
2021/08/19 07:16:33;;;;;;;15.30;10.23;;;31.20;55.60;;;;;;5013621;28;20494;-83
2021/08/19 07:18:58;;;;;;;14.32;10.13;;;31.70;54.60;;;;;;5013643;28;20049;-84
2021/08/19 07:21:24;;;;;;;14.37;10.20;;;31.80;53.80;;;;;;5012839;28;20029;-82
2021/08/19 07:23:50;;;;;;;11.87;10.37;;;31.10;54.20;;;;;;5013207;28;20045;-85
2021/08/19 07:26:17;;;;;;;15.85;13.48;;;30.00;56.60;;;;;;5013038;28;20423;-83
2021/08/19 07:28:43;;;;;;;13.73;11.93;;;29.40;58.70;;;;;;5014169;28;20383;-84
2021/08/19 07:31:09;;;;;;;13.20;10.75;;;29.00;59.70;;;;;;5012801;28;20018;-84
2021/08/19 07:33:35;;;;;;;14.90;12.25;;;28.50;61.90;;;;;;5013095;28;20107;-87
2021/08/19 07:36:00;;;;;;;21.63;12.77;;;28.20;62.90;;;;;;5011658;28;20076;-85
2021/08/19 07:38:26;;;;;;;16.70;12.90;;;27.80;64.10;;;;;;5012342;28;20036;-85
2021/08/19 07:40:52;;;;;;;13.65;12.27;;;27.40;64.80;;;;;;5012640;28;20045;-85
2021/08/19 07:43:18;;;;;;;13.93;12.48;;;27.20;66.20;;;;;;5012364;28;20459;-83
2021/08/19 07:45:44;;;;;;;14.05;12.60;;;27.00;66.60;;;;;;5012961;28;20030;-84
2021/08/19 07:48:14;;;;;;;13.07;11.77;;;26.90;67.40;;;;;;5016462;28;20022;-84
2021/08/19 07:50:41;;;;;;;13.93;12.43;;;26.70;68.30;;;;;;5009884;28;20393;-85
2021/08/19 07:53:07;;;;;;;;;;;26.60;68.50;;;;;;5016656;28;20034;-83
2021/08/19 07:55:33;;;;;;;16.63;12.97;;;26.30;67.90;;;;;;5017289;28;20382;-84
2021/08/19 07:57:59;;;;;;;13.63;12.25;;;25.70;70.30;;;;;;5017213;28;20088;-84
2021/08/19 08:00:28;;;;;;;16.30;13.15;;;25.50;71.70;;;;;;5011783;28;20019;-84
2021/08/19 08:02:55;;;;;;;13.27;11.98;;;25.50;72.10;;;;;;5009509;28;20022;-84
2021/08/19 08:05:22;;;;;;;15.68;11.35;;;25.40;72.30;;;;;;5017091;28;20080;-83
2021/08/19 08:07:48;;;;;;;14.75;11.63;;;25.20;72.60;;;;;;5015836;28;20022;-85
2021/08/19 08:10:14;;;;;;;17.42;11.88;;;25.00;73.50;;;;;;5016245;28;20022;-86
2021/08/19 08:12:40;;;;;;;12.23;10.82;;;24.80;74.10;;;;;;5014279;28;20517;-84
2021/08/19 08:15:07;;;;;;;13.52;11.30;;;24.80;74.00;;;;;;5016071;28;20494;-86
2021/08/19 08:17:36;;;;;;;15.85;11.98;;;24.70;74.40;;;;;;5013128;28;20069;-85
2021/08/19 08:20:09;;;;;;;13.75;11.32;;;24.70;74.90;;;;;;5003708;28;20443;-83
2021/08/19 08:22:36;;;;;;;13.50;10.50;;;24.80;75.60;;;;;;5016292;28;20454;-86
2021/08/19 08:25:03;;;;;;;;;;;24.90;74.90;;;;;;5017232;28;20060;-84
2021/08/19 08:27:29;;;;;;;12.00;10.18;;;25.10;73.90;;;;;;5015572;28;19906;-83
2021/08/19 08:29:55;;;;;;;12.32;11.02;;;25.30;73.80;;;;;;5014619;28;20487;-84
2021/08/19 08:32:21;;;;;;;12.00;10.82;;;25.40;72.70;;;;;;5015852;28;20483;-86
2021/08/19 08:34:47;;;;;;;11.13;10.02;;;25.60;72.70;;;;;;5015759;28;20034;-86
2021/08/19 08:37:13;;;;;;;23.45;11.55;;;25.90;71.30;;;;;;5017854;28;20022;-83
2021/08/19 08:39:39;;;;;;;12.98;10.52;;;25.90;71.80;;;;;;5015933;28;20057;-85
2021/08/19 08:42:06;;;;;;;13.20;10.20;;;26.10;71.20;;;;;;5015475;28;20042;-86
2021/08/19 08:44:36;;;;;;;14.55;11.10;;;26.40;69.80;;;;;;5015785;28;20022;-84
2021/08/19 08:47:02;;;;;;;14.57;10.82;;;26.60;69.10;;;;;;5016241;28;20510;-85
2021/08/19 08:49:28;;;;;;;12.77;9.67;;;27.00;68.70;;;;;;5014458;28;20033;-84
2021/08/19 08:52:00;;;;;;;13.10;10.18;;;27.50;67.40;;;;;;5016451;28;20733;-85
2021/08/19 08:54:31;;;;;;;12.18;10.48;;;27.80;66.10;;;;;;5016446;28;20045;-85
2021/08/19 08:56:57;;;;;;;11.93;10.70;;;27.80;65.00;;;;;;5015464;28;20034;-85
2021/08/19 08:59:25;;;;;;;11.88;9.60;;;27.90;65.20;;;;;;5014784;28;20030;-83
2021/08/19 09:01:54;;;;;;;14.93;10.87;;;27.70;65.50;;;;;;5014575;28;20028;-86
2021/08/19 09:04:21;;;;;;;18.80;11.25;;;27.70;65.70;;;;;;5014861;28;20022;-83
2021/08/19 09:06:47;;;;;;;;;;;27.60;66.00;;;;;;5015170;28;20037;-86
2021/08/19 09:09:17;;;;;;;14.57;10.53;;;27.60;66.30;;;;;;5014832;28;19906;-83
2021/08/19 09:11:52;;;;;;;11.45;9.98;;;28.20;64.80;;;;;;5015490;28;20052;-84
2021/08/19 09:14:21;;;;;;;14.57;9.43;;;29.70;61.70;;;;;;5000896;28;20066;-85
2021/08/19 09:16:48;;;;;;;15.93;10.32;;;30.40;58.50;;;;;;5014908;28;20060;-84
2021/08/19 09:19:19;;;;;;;12.73;8.40;;;31.80;55.70;;;;;;5013035;28;20116;-84
2021/08/19 09:21:51;;;;;;;10.90;8.88;;;33.00;53.10;;;;;;5013586;28;20029;-83
2021/08/19 09:24:22;;;;;;;13.80;8.98;;;33.90;50.60;;;;;;5014425;28;20387;-85
2021/08/19 09:26:49;;;;;;;10.85;9.13;;;34.30;49.00;;;;;;5014411;28;20130;-85
2021/08/19 09:29:28;;;;;;;11.60;9.02;;;33.40;49.50;;;;;;5014364;28;20032;-84
2021/08/19 09:32:14;;;;;;;16.73;10.23;;;33.00;50.60;;;;;;5005770;28;20026;-84
2021/08/19 09:34:42;;;;;;;12.75;10.75;;;32.50;52.00;;;;;;5011555;28;20064;-85
2021/08/19 09:37:11;;;;;;;16.17;10.57;;;31.70;52.80;;;;;;5014247;28;20026;-84
2021/08/19 09:39:40;;;;;;;12.82;10.57;;;31.10;55.00;;;;;;5014035;28;20053;-85
2021/08/19 09:42:07;;;;;;;16.08;10.75;;;30.50;55.50;;;;;;5014231;28;20163;-86
2021/08/19 09:44:34;;;;;;;;;;;30.40;55.90;;;;;;5013179;28;20076;-85
2021/08/19 09:47:06;;;;;;;12.82;11.00;;;30.10;56.40;;;;;;5015130;28;19992;-85
2021/08/19 09:49:37;;;;;;;16.65;11.00;;;29.80;57.60;;;;;;5017457;28;20021;-85
2021/08/19 09:52:11;;;;;;;16.08;10.15;;;29.60;57.90;;;;;;5015821;28;20037;-85
2021/08/19 09:54:41;;;;;;;12.80;9.55;;;29.10;59.00;;;;;;5014790;28;20030;-85
2021/08/19 09:57:11;;;;;;;16.35;11.68;;;28.70;60.20;;;;;;5016198;28;20109;-85
2021/08/19 09:59:44;;;;;;;12.60;10.13;;;28.30;61.80;;;;;;5014093;28;20026;-87
2021/08/19 10:02:10;;;;;;;12.85;10.13;;;28.10;62.40;;;;;;5013616;28;20387;-85
2021/08/19 10:04:37;;;;;;;11.88;9.57;;;28.00;62.40;;;;;;5013934;28;20037;-85
2021/08/19 10:07:03;;;;;;;11.15;9.60;;;27.90;62.20;;;;;;5013673;28;20042;-86
2021/08/19 10:09:30;;;;;;;14.02;11.32;;;27.70;62.90;;;;;;5015061;28;20502;-83
2021/08/19 10:11:57;;;;;;;13.30;9.63;;;27.60;64.00;;;;;;5001916;28;20038;-84
2021/08/19 10:14:25;;;;;;;14.80;10.63;;;27.40;64.40;;;;;;5012188;28;20303;-86
2021/08/19 10:16:53;;;;;;;15.27;10.43;;;27.50;64.90;;;;;;5013261;28;20495;-85
2021/08/19 10:19:33;;;;;;;13.25;10.20;;;27.40;64.00;;;;;;5015816;28;20105;-87
2021/08/19 10:22:07;;;;;;;15.95;10.18;;;27.50;64.40;;;;;;5016023;28;20113;-84
2021/08/19 10:24:36;;;;;;;13.07;10.55;;;27.80;64.00;;;;;;5016575;28;20055;-84
2021/08/19 10:27:12;;;;;;;12.35;9.80;;;28.10;63.10;;;;;;5013067;28;20105;-85
2021/08/19 10:29:54;;;;;;;12.55;9.55;;;28.20;61.60;;;;;;5014438;28;20029;-87
2021/08/19 10:32:26;;;;;;;12.25;10.02;;;28.10;61.70;;;;;;5012179;28;20113;-84
2021/08/19 10:35:00;;;;;;;10.50;9.43;;;27.90;62.40;;;;;;5014655;28;20152;-88
2021/08/19 10:37:44;;;;;;;13.60;10.95;;;27.90;63.20;;;;;;5001872;28;20054;-85
2021/08/19 10:40:19;;;;;;;13.85;10.45;;;28.20;62.90;;;;;;5000926;28;20105;-84
2021/08/19 10:42:51;;;;;;;15.48;11.23;;;28.20;62.00;;;;;;5013135;28;20029;-84
2021/08/19 10:45:29;;;;;;;11.75;9.98;;;28.20;61.70;;;;;;5012974;28;20434;-85
2021/08/19 10:48:01;;;;;;;12.95;11.32;;;28.10;62.30;;;;;;5013062;28;20026;-84
2021/08/19 10:50:32;;;;;;;12.73;10.43;;;28.20;62.50;;;;;;5013103;28;20384;-83
2021/08/19 10:53:11;;;;;;;14.50;10.63;;;28.30;61.70;;;;;;5012421;28;20038;-87
2021/08/19 10:55:44;;;;;;;16.98;10.85;;;28.10;62.40;;;;;;5012926;28;20022;-85
2021/08/19 10:58:32;;;;;;;11.43;10.23;;;27.90;62.30;;;;;;5012956;28;20022;-83
2021/08/19 11:01:00;;;;;;;11.40;10.20;;;27.50;62.90;;;;;;5013480;28;20029;-85
2021/08/19 11:03:35;;;;;;;12.82;9.95;;;27.30;64.20;;;;;;5013254;28;20026;-84
2021/08/19 11:06:13;;;;;;;14.20;10.60;;;27.30;64.70;;;;;;5011535;28;20053;-84
2021/08/19 11:08:40;;;;;;;13.18;9.90;;;27.20;64.20;;;;;;5012838;28;20373;-85
2021/08/19 11:11:06;;;;;;;;;;;27.10;63.90;;;;;;5013322;28;20068;-84
2021/08/19 11:13:35;;;;;;;11.48;10.32;;;27.00;64.10;;;;;;5012914;28;19982;-84
2021/08/19 11:16:12;;;;;;;12.75;10.27;;;26.80;65.20;;;;;;5012467;28;20033;-84
2021/08/19 11:18:40;;;;;;;12.38;10.07;;;27.00;65.40;;;;;;5012784;28;20033;-85
2021/08/19 11:21:08;;;;;;;13.38;9.73;;;27.10;64.90;;;;;;5013792;28;20030;-84
2021/08/19 11:23:38;;;;;;;10.10;8.35;;;27.20;63.90;;;;;;5017417;28;20097;-84
2021/08/19 11:26:15;;;;;;;11.00;9.02;;;27.00;64.50;;;;;;5015666;28;20026;-85
2021/08/19 11:28:46;;;;;;;13.52;9.75;;;27.00;64.40;;;;;;5017081;28;20167;-84
2021/08/19 11:31:25;;;;;;;10.27;9.18;;;26.90;64.10;;;;;;5016696;28;20018;-84
2021/08/19 11:34:02;;;;;;;12.75;9.70;;;26.70;64.80;;;;;;5016472;28;20033;-84
2021/08/19 11:36:29;;;;;;;20.80;12.75;;;26.60;65.50;;;;;;5014977;28;20018;-85
2021/08/19 11:38:59;;;;;;;;;;;26.70;65.60;;;;;;5016888;28;20033;-85
2021/08/19 11:41:25;;;;;;;11.30;10.05;;;26.90;65.10;;;;;;5014316;28;20128;-85
2021/08/19 11:43:59;;;;;;;11.17;9.63;;;27.10;64.40;;;;;;5016921;28;20014;-87
2021/08/19 11:46:27;;;;;;;11.57;9.00;;;27.30;63.80;;;;;;5015319;28;20030;-84
2021/08/19 11:49:01;;;;;;;12.23;9.57;;;27.50;63.30;;;;;;5015157;28;20021;-83
2021/08/19 11:51:28;;;;;;;14.80;9.77;;;27.60;62.40;;;;;;5015071;28;20364;-83
2021/08/19 11:53:58;;;;;;;10.30;8.55;;;27.50;62.10;;;;;;5015927;28;20555;-86
2021/08/19 11:56:36;;;;;;;13.68;9.55;;;27.40;62.30;;;;;;5025206;28;20034;-85
2021/08/19 11:59:06;;;;;;;15.35;8.73;;;27.40;63.40;;;;;;5015662;28;20049;-85
2021/08/19 12:01:32;;;;;;;14.75;9.68;;;27.50;64.00;;;;;;5014743;28;20028;-85
2021/08/19 12:03:59;;;;;;;15.27;9.20;;;27.40;63.20;;;;;;5015982;28;20068;-85
2021/08/19 12:06:27;;;;;;;12.30;9.60;;;27.30;63.80;;;;;;5014407;28;20026;-85
2021/08/19 12:09:05;;;;;;;12.63;8.60;;;27.30;64.90;;;;;;5014257;28;20502;-86
2021/08/19 12:11:37;;;;;;;13.15;9.15;;;27.30;64.80;;;;;;5014459;28;20030;-84
2021/08/19 12:14:03;;;;;;;10.18;8.40;;;27.40;64.60;;;;;;5013350;28;20152;-86
2021/08/19 12:16:30;;;;;;;15.45;9.25;;;27.40;64.50;;;;;;5014507;28;20440;-86
2021/08/19 12:19:09;;;;;;;11.85;8.43;;;27.30;65.70;;;;;;5014597;28;20514;-84
2021/08/19 12:21:37;;;;;;;17.92;9.27;;;27.20;65.50;;;;;;5003308;28;20041;-83
2021/08/19 12:24:21;;;;;;;13.60;9.73;;;27.20;65.70;;;;;;5014853;28;20022;-86
2021/08/19 12:27:08;;;;;;;14.95;9.02;;;27.20;64.70;;;;;;5014598;28;20357;-87
2021/08/19 12:29:52;;;;;;;12.23;8.73;;;27.00;65.10;;;;;;5014030;28;20096;-85
2021/08/19 12:32:36;;;;;;;10.80;8.80;;;26.90;65.60;;;;;;5013980;28;20479;-84
2021/08/19 12:35:11;;;;;;;8.65;7.68;;;27.00;65.60;;;;;;5014623;28;20026;-86